createdAt,value
2022-11-16T00:00:17.911Z,100313.74
2022-11-16T00:06:50.732Z,100304.91
2022-11-16T00:09:45.782Z,100306.11
2022-11-16T00:12:40.586Z,100309.49
2022-11-16T00:15:35.832Z,100313.39
2022-11-16T00:18:30.870Z,100317.84
2022-11-16T00:21:26.062Z,100313.42
2022-11-16T00:24:21.921Z,100311.24
2022-11-16T00:27:16.722Z,100303.63
2022-11-16T00:30:13.927Z,100290.42
2022-11-16T00:33:09.217Z,100290.75
2022-11-16T00:36:05.913Z,100287.84
2022-11-16T00:39:00.528Z,100283.98
2022-11-16T00:41:55.424Z,100286.52
2022-11-16T00:44:50.120Z,100286.79
2022-11-16T00:47:45.327Z,100284.41
2022-11-16T00:50:40.006Z,100291.71
2022-11-16T00:53:35.110Z,100284.69
2022-11-16T00:56:30.376Z,100282.77
2022-11-16T00:59:25.240Z,100284.41
2022-11-16T01:02:22.767Z,100295.25
2022-11-16T01:05:17.553Z,100301.27
2022-11-16T01:08:13.323Z,100297.49
2022-11-16T01:11:26.141Z,100298.48
2022-11-16T01:14:20.829Z,100300.66
2022-11-16T01:17:16.021Z,100301.77
2022-11-16T01:20:15.922Z,100300.83
2022-11-16T01:23:10.572Z,100298.45
2022-11-16T01:26:05.540Z,100291.50
2022-11-16T01:29:04.273Z,100290.27
2022-11-16T01:32:02.956Z,100288.55
2022-11-16T01:34:58.942Z,100289.67
2022-11-16T01:38:00.000Z,100284.70
2022-11-16T01:40:55.305Z,100281.08
2022-11-16T01:44:00.803Z,100277.41
2022-11-16T01:47:02.743Z,100265.98
2022-11-16T01:49:58.059Z,100270.38
2022-11-16T01:53:00.878Z,100265.52
2022-11-16T01:56:00.678Z,100258.49
2022-11-16T01:59:00.927Z,100256.04
2022-11-16T02:01:55.992Z,100252.82
2022-11-16T02:04:50.251Z,100250.33
2022-11-16T02:08:28.716Z,100251.83
2022-11-16T02:11:41.682Z,100256.77
2022-11-16T02:14:49.897Z,100256.31
2022-11-16T02:17:52.803Z,100254.21
2022-11-16T02:21:18.240Z,100255.12
2022-11-16T02:24:40.672Z,100247.88
2022-11-16T02:28:10.003Z,100245.73
2022-11-16T02:31:06.946Z,100241.14
2022-11-16T02:34:01.901Z,100240.95
2022-11-16T02:36:57.476Z,100238.86
2022-11-16T02:39:54.470Z,100241.45
2022-11-16T02:42:51.408Z,100236.33
2022-11-16T02:45:49.608Z,100228.77
2022-11-16T02:48:48.534Z,100226.31
2022-11-16T02:51:43.524Z,100222.88
2022-11-16T02:54:41.689Z,100228.31
2022-11-16T02:57:51.637Z,100225.00
2022-11-16T03:00:49.629Z,100228.95
2022-11-16T03:03:49.956Z,100231.81
2022-11-16T03:06:44.252Z,100228.66
2022-11-16T03:09:39.573Z,100225.50
2022-11-16T03:12:37.828Z,100223.91
2022-11-16T03:15:32.619Z,100218.44
2022-11-16T03:18:29.172Z,100216.92
2022-11-16T03:21:31.982Z,100216.76
2022-11-16T03:24:28.751Z,100213.83
2022-11-16T03:27:28.836Z,100211.38
2022-11-16T03:30:25.676Z,100213.70
2022-11-16T03:33:24.565Z,100210.91
2022-11-16T03:36:21.889Z,100205.97
2022-11-16T03:39:18.821Z,100206.50
2022-11-16T03:42:15.836Z,100196.85
2022-11-16T03:45:12.962Z,100195.98
2022-11-16T03:48:09.242Z,100194.08
2022-11-16T03:51:03.703Z,100199.75
2022-11-16T03:53:58.213Z,100198.85
2022-11-16T03:56:52.979Z,100196.96
2022-11-16T03:59:48.650Z,100198.06
2022-11-16T04:02:43.780Z,100199.86
2022-11-16T04:06:01.952Z,100199.81
2022-11-16T04:09:14.487Z,100202.66
2022-11-16T04:12:28.198Z,100201.15
2022-11-16T04:15:40.095Z,100203.36
2022-11-16T04:18:52.864Z,100197.42
2022-11-16T04:22:06.116Z,100193.06
2022-11-16T04:25:06.409Z,100190.44
2022-11-16T04:28:16.407Z,100184.44
2022-11-16T04:31:37.056Z,100186.56
2022-11-16T04:34:52.960Z,100178.14
2022-11-16T04:37:52.805Z,100172.89
2022-11-16T04:40:54.726Z,100169.55
2022-11-16T04:43:51.047Z,100176.94
2022-11-16T04:47:03.689Z,100180.20
2022-11-16T04:49:58.335Z,100183.06
2022-11-16T04:52:53.148Z,100183.46
2022-11-16T04:55:50.579Z,100180.65
2022-11-16T04:58:46.241Z,100179.26
2022-11-16T05:01:58.229Z,100177.84
2022-11-16T05:04:52.564Z,100175.27
2022-11-16T05:07:47.509Z,100169.41
2022-11-16T05:10:49.386Z,100170.31
2022-11-16T05:13:43.828Z,100170.15
2022-11-16T05:16:38.543Z,100168.08
2022-11-16T05:19:50.725Z,100169.98
2022-11-16T05:22:45.843Z,100173.50
2022-11-16T05:25:40.554Z,100175.30
2022-11-16T05:28:37.940Z,100177.05
2022-11-16T05:31:36.361Z,100175.14
2022-11-16T05:34:35.707Z,100171.45
2022-11-16T05:37:30.716Z,100170.27
2022-11-16T05:40:25.344Z,100171.77
2022-11-16T05:43:25.045Z,100168.73
2022-11-16T05:46:28.210Z,100172.20
2022-11-16T05:49:23.742Z,100177.14
2022-11-16T05:52:18.978Z,100176.20
2022-11-16T05:55:14.260Z,100173.63
2022-11-16T05:58:10.834Z,100174.44
2022-11-16T06:01:05.865Z,100175.15
2022-11-16T06:04:01.831Z,100167.83
2022-11-16T06:06:56.370Z,100169.59
2022-11-16T06:09:54.061Z,100169.80
2022-11-16T06:12:48.909Z,100168.16
2022-11-16T06:18:52.857Z,100163.06
2022-11-16T06:21:47.894Z,100157.80
2022-11-16T06:24:45.412Z,100152.55
2022-11-16T06:27:40.640Z,100147.90
2022-11-16T06:30:36.205Z,100149.29
2022-11-16T06:33:33.788Z,100145.09
2022-11-16T06:36:29.815Z,100143.34
2022-11-16T06:39:25.031Z,100143.33
2022-11-16T06:42:19.852Z,100147.98
2022-11-16T06:45:14.987Z,100145.94
2022-11-16T06:48:13.583Z,100140.23
2022-11-16T06:51:08.613Z,100140.02
2022-11-16T06:54:03.046Z,100136.22
2022-11-16T06:56:58.499Z,100139.15
2022-11-16T06:59:54.118Z,100138.95
2022-11-16T07:02:48.468Z,100141.89
2022-11-16T07:05:45.185Z,100144.83
2022-11-16T07:08:42.213Z,100144.77
2022-11-16T07:11:38.087Z,100138.91
2022-11-16T07:14:32.567Z,100138.58
2022-11-16T07:17:27.131Z,100134.33
2022-11-16T07:20:22.962Z,100137.31
2022-11-16T07:23:18.267Z,100130.78
2022-11-16T07:26:13.562Z,100134.45
2022-11-16T07:29:19.704Z,100132.55
2022-11-16T07:32:32.083Z,100134.79
2022-11-16T07:35:34.506Z,100133.77
2022-11-16T07:38:29.975Z,100130.27
2022-11-16T07:41:25.497Z,100124.02
2022-11-16T07:44:35.462Z,100122.27
2022-11-16T07:47:38.090Z,100126.05
2022-11-16T07:50:35.657Z,100123.20
2022-11-16T07:53:30.922Z,100129.42
2022-11-16T07:56:25.755Z,100122.64
2022-11-16T07:59:20.793Z,100132.09
2022-11-16T08:02:17.070Z,100134.17
2022-11-16T08:05:13.137Z,100133.25
2022-11-16T08:08:07.121Z,100137.08
2022-11-16T08:11:06.296Z,100132.55
2022-11-16T08:14:01.673Z,100133.91
2022-11-16T08:16:56.830Z,100138.32
2022-11-16T08:19:53.804Z,100142.20
2022-11-16T08:22:49.868Z,100140.67
2022-11-16T08:25:45.816Z,100138.39
2022-11-16T08:28:40.931Z,100144.40
2022-11-16T08:31:36.148Z,100140.23
2022-11-16T08:34:36.452Z,100142.92
2022-11-16T08:37:32.491Z,100143.21
2022-11-16T08:40:27.527Z,100150.13
2022-11-16T08:43:22.873Z,100150.09
2022-11-16T08:46:17.847Z,100150.71
2022-11-16T08:49:16.004Z,100150.44
2022-11-16T08:52:10.835Z,100150.08
2022-11-16T08:55:06.666Z,100150.32
2022-11-16T08:58:02.157Z,100153.95
2022-11-16T09:00:56.040Z,100152.83
2022-11-16T09:03:50.963Z,100152.27
2022-11-16T09:06:45.961Z,100157.54
2022-11-16T09:09:40.633Z,100159.34
2022-11-16T09:12:35.668Z,100151.77
2022-11-16T09:15:30.535Z,100153.72
2022-11-16T09:18:25.425Z,100151.98
2022-11-16T09:21:23.605Z,100144.89
2022-11-16T09:24:18.316Z,100145.34
2022-11-16T09:27:13.560Z,100147.10
2022-11-16T09:30:11.872Z,100148.30
2022-11-16T09:33:06.973Z,100147.39
2022-11-16T09:36:07.122Z,100148.17
2022-11-16T09:39:32.232Z,100142.80
2022-11-16T09:42:32.888Z,100137.90
2022-11-16T09:45:32.419Z,100142.49
2022-11-16T09:48:27.052Z,100140.98
2022-11-16T09:51:22.428Z,100137.27
2022-11-16T09:54:19.773Z,100137.73
2022-11-16T09:57:16.424Z,100133.77
2022-11-16T10:00:19.611Z,100136.18
2022-11-16T10:03:16.256Z,100133.73
2022-11-16T10:06:16.354Z,100129.11
2022-11-16T10:09:14.139Z,100131.05
2022-11-16T10:12:16.365Z,100126.14
2022-11-16T10:15:50.489Z,100119.60
2022-11-16T10:18:56.717Z,100116.00
2022-11-16T10:21:56.360Z,100118.17
2022-11-16T10:24:59.414Z,100115.97
2022-11-16T10:28:21.590Z,100111.98
2022-11-16T10:31:20.888Z,100114.59
2022-11-16T10:34:17.740Z,100114.20
2022-11-16T10:37:14.421Z,100108.59
2022-11-16T10:40:21.138Z,100106.14
2022-11-16T10:43:19.317Z,100107.18
2022-11-16T10:46:18.725Z,100106.08
2022-11-16T10:49:16.782Z,100102.77
2022-11-16T10:52:11.854Z,100101.95
2022-11-16T10:55:07.764Z,100096.30
2022-11-16T10:58:04.442Z,100097.27
2022-11-16T11:01:00.726Z,100095.69
2022-11-16T11:03:55.940Z,100099.77
2022-11-16T11:06:52.677Z,100094.83
2022-11-16T11:09:47.461Z,100095.81
2022-11-16T11:12:42.899Z,100100.95
2022-11-16T11:15:37.567Z,100104.71
2022-11-16T11:18:32.392Z,100098.04
2022-11-16T11:21:27.831Z,100104.77
2022-11-16T11:24:44.010Z,100097.42
2022-11-16T11:27:38.902Z,100097.55
2022-11-16T11:30:33.761Z,100105.55
2022-11-16T11:33:29.986Z,100100.56
2022-11-16T11:36:26.248Z,100104.29
2022-11-16T11:39:38.202Z,100103.46
2022-11-16T11:42:33.224Z,100100.60
2022-11-16T11:45:32.638Z,100100.73
2022-11-16T11:48:35.818Z,100096.41
2022-11-16T11:51:34.237Z,100097.54
2022-11-16T11:54:30.616Z,100095.02
2022-11-16T11:57:26.711Z,100100.42
2022-11-16T12:00:24.000Z,100100.35
2022-11-16T12:03:44.717Z,100100.14
2022-11-16T12:06:44.144Z,100094.75
2022-11-16T12:09:42.274Z,100092.02
2022-11-16T12:12:46.759Z,100091.81
2022-11-16T12:15:55.404Z,100096.02
2022-11-16T12:19:05.581Z,100087.15
2022-11-16T12:22:10.171Z,100091.53
2022-11-16T12:25:16.341Z,100094.66
2022-11-16T12:28:21.763Z,100097.11
2022-11-16T12:31:47.823Z,100097.06
2022-11-16T12:34:57.231Z,100096.83
2022-11-16T12:37:59.352Z,100096.13
2022-11-16T12:41:05.517Z,100100.42
2022-11-16T12:44:02.400Z,100100.36
2022-11-16T12:47:03.829Z,100095.25
2022-11-16T12:50:14.232Z,100101.59
2022-11-16T12:53:23.618Z,100103.06
2022-11-16T12:56:25.159Z,100092.80
2022-11-16T12:59:32.730Z,100093.01
2022-11-16T13:02:56.613Z,100097.95
2022-11-16T13:06:03.320Z,100094.93
2022-11-16T13:09:04.588Z,100096.36
2022-11-16T13:12:02.358Z,100097.67
2022-11-16T13:14:57.975Z,100095.54
2022-11-16T13:17:57.475Z,100100.12
2022-11-16T13:20:56.205Z,100102.37
2022-11-16T13:24:00.936Z,100107.28
2022-11-16T13:27:02.342Z,100103.36
2022-11-16T13:30:00.757Z,100103.68
2022-11-16T13:33:08.411Z,100103.48
2022-11-16T13:36:17.035Z,100105.00
2022-11-16T13:39:15.789Z,100101.94
2022-11-16T13:42:17.109Z,100099.25
2022-11-16T13:45:19.653Z,100105.39
2022-11-16T13:48:22.460Z,100102.85
2022-11-16T13:51:23.111Z,100100.69
2022-11-16T13:54:44.424Z,100098.52
2022-11-16T13:57:34.931Z,100101.59
2022-11-16T14:00:33.547Z,100097.27
2022-11-16T14:03:38.458Z,100097.27
2022-11-16T14:07:01.568Z,100103.24
2022-11-16T14:09:56.207Z,100100.82
2022-11-16T14:13:01.080Z,100099.76
2022-11-16T14:15:58.068Z,100106.30
2022-11-16T14:18:53.285Z,100109.16
2022-11-16T14:21:51.059Z,100105.30
2022-11-16T14:24:47.954Z,100104.57
2022-11-16T14:27:45.465Z,100107.42
2022-11-16T14:30:57.911Z,100107.06
2022-11-16T14:33:55.372Z,100107.23
2022-11-16T14:36:50.836Z,100108.82
2022-11-16T14:39:46.089Z,100107.63
2022-11-16T14:43:14.930Z,100111.35
2022-11-16T14:46:04.665Z,100107.30
2022-11-16T14:49:00.571Z,100110.73
2022-11-16T14:51:57.368Z,100111.80
2022-11-16T14:54:55.986Z,100113.46
2022-11-16T14:57:50.808Z,100113.02
2022-11-16T15:00:45.681Z,100107.91
2022-11-16T15:03:47.529Z,100117.60
2022-11-16T15:06:46.745Z,100113.92
2022-11-16T15:09:45.236Z,100114.50
2022-11-16T15:12:46.011Z,100114.46
2022-11-16T15:15:40.814Z,100117.08
2022-11-16T15:18:35.618Z,100108.70
2022-11-16T15:21:30.491Z,100106.98
2022-11-16T15:24:31.735Z,100108.37
2022-11-16T15:27:37.922Z,100100.52
2022-11-16T15:30:34.558Z,100099.27
2022-11-16T15:33:31.090Z,100101.18
2022-11-16T15:36:40.190Z,100113.04
2022-11-16T15:39:37.252Z,100119.38
2022-11-16T15:42:32.421Z,100118.05
2022-11-16T15:45:28.140Z,100115.35
2022-11-16T15:48:25.373Z,100121.03
2022-11-16T15:51:24.359Z,100114.41
2022-11-16T15:54:26.310Z,100115.42
2022-11-16T15:57:21.209Z,100124.25
2022-11-16T16:00:29.473Z,100117.27
2022-11-16T16:03:26.356Z,100125.52
2022-11-16T16:06:49.483Z,100130.42
2022-11-16T16:09:44.727Z,100130.77
2022-11-16T16:12:47.521Z,100129.83
2022-11-16T16:15:43.440Z,100129.55
2022-11-16T16:18:42.113Z,100136.30
2022-11-16T16:21:46.976Z,100135.04
2022-11-16T16:24:46.968Z,100129.82
2022-11-16T16:27:43.351Z,100128.06
2022-11-16T16:30:39.453Z,100131.82
2022-11-16T16:33:32.944Z,100128.20
2022-11-16T16:36:28.105Z,100134.30
2022-11-16T16:39:22.766Z,100129.76
2022-11-16T16:42:18.250Z,100133.48
2022-11-16T16:45:18.257Z,100142.67
2022-11-16T16:48:13.019Z,100142.84
2022-11-16T16:51:10.783Z,100137.23
2022-11-16T16:54:05.572Z,100146.59
2022-11-16T16:57:01.474Z,100145.36
2022-11-16T16:59:56.589Z,100140.29
2022-11-16T17:02:51.242Z,100144.61
2022-11-16T17:05:45.979Z,100140.41
2022-11-16T17:08:40.860Z,100147.92
2022-11-16T17:11:35.622Z,100150.77
2022-11-16T17:14:30.250Z,100150.50
2022-11-16T17:17:25.564Z,100151.79
2022-11-16T17:20:21.381Z,100152.90
2022-11-16T17:23:18.355Z,100150.98
2022-11-16T17:26:13.165Z,100146.80
2022-11-16T17:29:08.262Z,100146.97
2022-11-16T17:32:03.019Z,100148.73
2022-11-16T17:34:57.745Z,100146.51
2022-11-16T17:37:52.832Z,100147.08
2022-11-16T17:40:47.644Z,100145.84
2022-11-16T17:43:44.975Z,100146.55
2022-11-16T17:46:41.074Z,100150.59
2022-11-16T17:49:34.144Z,100147.27
2022-11-16T17:52:28.908Z,100151.36
2022-11-16T17:55:23.764Z,100149.80
2022-11-16T17:58:18.882Z,100151.03
2022-11-16T18:01:14.330Z,100149.84
2022-11-16T18:04:09.516Z,100147.48
2022-11-16T18:07:04.381Z,100147.52
2022-11-16T18:09:59.190Z,100142.17
2022-11-16T18:12:54.955Z,100145.52
2022-11-16T18:15:50.510Z,100148.17
2022-11-16T18:18:45.374Z,100147.52
2022-11-16T18:21:44.149Z,100146.62
2022-11-16T18:24:38.888Z,100144.09
2022-11-16T18:27:33.612Z,100146.78
2022-11-16T18:30:28.531Z,100144.83
2022-11-16T18:33:27.778Z,100141.55
2022-11-16T18:36:25.588Z,100136.45
2022-11-16T18:39:20.694Z,100135.63
2022-11-16T18:42:16.292Z,100139.63
2022-11-16T18:45:13.338Z,100136.86
2022-11-16T18:48:08.269Z,100138.89
2022-11-16T18:51:07.586Z,100139.96
2022-11-16T18:54:02.547Z,100134.52
2022-11-16T18:56:57.659Z,100134.40
2022-11-16T18:59:52.352Z,100138.52
2022-11-16T19:02:46.981Z,100136.11
2022-11-16T19:05:41.765Z,100140.36
2022-11-16T19:08:36.631Z,100142.90
2022-11-16T19:11:31.967Z,100146.81
2022-11-16T19:14:26.672Z,100143.83
2022-11-16T19:17:24.699Z,100146.83
2022-11-16T19:20:19.993Z,100148.91
2022-11-16T19:23:14.736Z,100147.67
2022-11-16T19:26:10.486Z,100148.70
2022-11-16T19:29:05.637Z,100148.75
2022-11-16T19:32:01.361Z,100148.79
2022-11-16T19:34:56.158Z,100149.84
2022-11-16T19:37:50.870Z,100149.11
2022-11-16T19:40:45.569Z,100147.23
2022-11-16T19:43:40.428Z,100150.52
2022-11-16T19:46:36.007Z,100149.45
2022-11-16T19:49:30.795Z,100148.79
2022-11-16T19:52:25.627Z,100143.33
2022-11-16T19:55:20.712Z,100146.02
2022-11-16T19:58:15.486Z,100147.25
2022-11-16T20:01:13.110Z,100141.40
2022-11-16T20:04:09.379Z,100148.09
2022-11-16T20:07:05.711Z,100146.85
2022-11-16T20:10:00.421Z,100147.94
2022-11-16T20:12:56.846Z,100153.02
2022-11-16T20:15:51.675Z,100153.55
2022-11-16T20:18:46.865Z,100154.27
2022-11-16T20:21:42.672Z,100151.61
2022-11-16T20:24:37.455Z,100158.29
2022-11-16T20:27:32.717Z,100157.52
2022-11-16T20:30:27.339Z,100154.86
2022-11-16T20:33:22.134Z,100156.86
2022-11-16T20:36:17.041Z,100155.09
2022-11-16T20:39:14.466Z,100150.74
2022-11-16T20:42:09.472Z,100156.63
2022-11-16T20:45:04.541Z,100152.83
2022-11-16T20:47:59.592Z,100150.66
2022-11-16T20:50:57.942Z,100149.39
2022-11-16T20:53:53.225Z,100146.41
2022-11-16T20:56:50.468Z,100144.27
2022-11-16T20:59:45.310Z,100147.55
2022-11-16T21:02:39.935Z,100145.27
2022-11-16T21:05:34.970Z,100151.60
2022-11-16T21:08:30.876Z,100148.17
2022-11-16T21:11:28.132Z,100143.23
2022-11-16T21:14:23.135Z,100148.16
2022-11-16T21:17:17.712Z,100150.32
2022-11-16T21:20:27.432Z,100151.83
2022-11-16T21:23:22.418Z,100149.05
2022-11-16T21:26:17.803Z,100145.14
2022-11-16T21:29:12.730Z,100145.10
2022-11-16T21:32:08.462Z,100147.55
2022-11-16T21:35:03.153Z,100152.86
2022-11-16T21:37:57.809Z,100143.06
2022-11-16T21:40:52.660Z,100140.67
2022-11-16T21:43:47.423Z,100139.29
2022-11-16T21:46:42.124Z,100142.64
2022-11-16T21:49:43.250Z,100141.83
2022-11-16T21:52:51.435Z,100141.83
2022-11-16T21:55:46.172Z,100142.40
2022-11-16T21:58:41.284Z,100146.20
2022-11-16T22:01:49.677Z,100146.28
2022-11-16T22:05:02.239Z,100146.86
2022-11-16T22:07:57.000Z,100133.78
2022-11-16T22:10:55.500Z,100138.96
2022-11-16T22:13:50.548Z,100137.84
2022-11-16T22:16:45.012Z,100128.36
2022-11-16T22:19:39.916Z,100139.55
2022-11-16T22:22:34.511Z,100133.83
2022-11-16T22:25:29.242Z,100139.42
2022-11-16T22:28:24.061Z,100143.23
2022-11-16T22:31:19.930Z,100145.77
2022-11-16T22:34:14.620Z,100148.72
2022-11-16T22:37:09.368Z,100144.10
2022-11-16T22:40:04.265Z,100152.75
2022-11-16T22:43:02.083Z,100146.09
2022-11-16T22:46:01.424Z,100145.96
2022-11-16T22:48:56.179Z,100144.80
2022-11-16T22:51:50.961Z,100145.33
2022-11-16T22:54:45.776Z,100140.09
2022-11-16T22:57:40.799Z,100136.61
2022-11-16T23:00:40.756Z,100137.50
2022-11-16T23:03:37.516Z,100138.96
2022-11-16T23:06:32.421Z,100135.82
2022-11-16T23:09:27.094Z,100136.23
2022-11-16T23:12:39.503Z,100132.67
2022-11-16T23:15:52.654Z,100132.02
2022-11-16T23:18:47.650Z,100134.15
2022-11-16T23:21:59.803Z,100133.41
2022-11-16T23:25:12.357Z,100131.49
2022-11-16T23:28:08.812Z,100135.91
2022-11-16T23:31:03.566Z,100136.11
2022-11-16T23:33:58.332Z,100136.19
2022-11-16T23:36:52.997Z,100135.38
2022-11-16T23:39:47.592Z,100134.64
2022-11-16T23:43:00.192Z,100140.84
2022-11-16T23:45:54.871Z,100138.68
2022-11-16T23:48:49.501Z,100138.23
2022-11-16T23:51:44.199Z,100135.79
2022-11-16T23:54:39.220Z,100132.27
2022-11-16T23:57:33.982Z,100131.61
